Grande Mariner — WCY6594 — position and weather

sailwx.info

Track history (hours):
 
Tides and Currents Weather Stations Pressure Air Temp Water Temp Dewpoint Dewpoint Depression Visibility Wind Speed Wind Dir Waves Ship Positions

Grande Mariner

Owner: AMERICAN CANADIAN CARIBBEAN LINE INC, WARREN, RI. More information available from US FCC via Universal Licensing System and Coast Guard Vessel Documentation Center.

Last reported at 2015-Sep-01 09:33 UTC. Time now 2015-Sep-01 10:10 UTC.
Position N 41°20' W 071°31'.

Length 56 m; draft 2 m.

Type: Passenger vessel. MMSI: 369024000.

Date/timePositionNaut miles runAvg speedWind from/ knotsBaromVisibWave heightAir tempDewpointWater temp
2015-Sep-01 09:33N 41°20' W 071°31'7 7.4
2015-Sep-01 08:33N 41°18' W 071°41'8 8.0
2015-Sep-01 07:33N 41°16' W 071°51'8 8.4
2015-Sep-01 06:33N 41°14' W 072°02'1010.4
2015-Sep-01 05:33N 41°13' W 072°16'9 9.4
2015-Sep-01 04:33N 41°11' W 072°28'9 9.2
2015-Sep-01 03:33N 41°08' W 072°40'9 9.3
2015-Sep-01 02:33N 41°06' W 072°51'9 9.5
2015-Sep-01 01:33N 41°03' W 073°03'10 9.7
2015-Sep-01 00:33N 41°01' W 073°16'2610.5
2015-Aug-31 22:06N 40°50' W 073°47'5 8.7
2015-Aug-31 21:29N 40°48' W 073°53'7 7.6
2015-Aug-31 20:33N 40°42' W 073°59'5 5.2
2015-Aug-31 19:33N 40°48' W 073°59'2210.7
2015-Aug-31 17:31N 41°09' W 073°54'  
2015-Aug-25 17:18N 43°21' W 079°01'810.9
2015-Aug-25 16:33N 43°17' W 079°11'5 5.1
2015-Aug-25 15:34N 43°12' W 079°13'3 3.0
2015-Aug-25 14:34N 43°09' W 079°12'1 1.3
2015-Aug-25 13:34N 43°08' W 079°12'2 1.7
2015-Aug-25 12:32N 43°06' W 079°12'  
Track history (hours):
 
Tides and Currents Weather Stations Pressure Air Temp Water Temp Dewpoint Dewpoint Depression Visibility Wind Speed Wind Dir Waves Ship Positions

Grande Mariner

Owner: AMERICAN CANADIAN CARIBBEAN LINE INC, WARREN, RI. More information available from US FCC via Universal Licensing System and Coast Guard Vessel Documentation Center.

Last reported at 2015-Sep-01 09:33 UTC. Time now 2015-Sep-01 10:10 UTC.
Position N 41°20' W 071°31'.

Length 56 m; draft 2 m.

Type: Passenger vessel. MMSI: 369024000.

Date/timePositionNaut miles runAvg speedWind from/ knotsBaromVisibWave heightAir tempDewpointWater temp
2015-Sep-01 09:33N 41°20' W 071°31'7 7.4
2015-Sep-01 08:33N 41°18' W 071°41'8 8.0
2015-Sep-01 07:33N 41°16' W 071°51'8 8.4
2015-Sep-01 06:33N 41°14' W 072°02'1010.4
2015-Sep-01 05:33N 41°13' W 072°16'9 9.4
2015-Sep-01 04:33N 41°11' W 072°28'9 9.2
2015-Sep-01 03:33N 41°08' W 072°40'9 9.3
2015-Sep-01 02:33N 41°06' W 072°51'9 9.5
2015-Sep-01 01:33N 41°03' W 073°03'10 9.7
2015-Sep-01 00:33N 41°01' W 073°16'2610.5
2015-Aug-31 22:06N 40°50' W 073°47'5 8.7
2015-Aug-31 21:29N 40°48' W 073°53'7 7.6
2015-Aug-31 20:33N 40°42' W 073°59'5 5.2
2015-Aug-31 19:33N 40°48' W 073°59'2210.7
2015-Aug-31 17:31N 41°09' W 073°54'  
2015-Aug-25 17:18N 43°21' W 079°01'810.9
2015-Aug-25 16:33N 43°17' W 079°11'5 5.1
2015-Aug-25 15:34N 43°12' W 079°13'3 3.0
2015-Aug-25 14:34N 43°09' W 079°12'1 1.3
2015-Aug-25 13:34N 43°08' W 079°12'2 1.7
2015-Aug-25 12:32N 43°06' W 079°12'  

Dump ship's entire track history